createdAt,value
2019-05-09T00:00:25.608Z,5.07
2019-05-09T00:02:58.330Z,4.67
2019-05-09T00:05:30.421Z,4.60
2019-05-09T00:08:03.496Z,5.40
2019-05-09T00:10:41.589Z,4.97
2019-05-09T00:13:09.590Z,5.20
2019-05-09T00:15:43.711Z,5.07
2019-05-09T00:18:15.472Z,4.83
2019-05-09T00:21:04.129Z,5.00
2019-05-09T00:23:36.399Z,4.90
2019-05-09T00:26:08.511Z,5.20
2019-05-09T00:28:44.094Z,4.53
2019-05-09T00:31:30.914Z,5.00
2019-05-09T00:34:05.705Z,5.50
2019-05-09T00:36:37.767Z,5.07
2019-05-09T00:39:09.842Z,5.40
2019-05-09T00:41:43.520Z,5.10
2019-05-09T00:44:23.717Z,6.17
2019-05-09T00:47:13.398Z,5.53
2019-05-09T00:49:45.081Z,5.67
2019-05-09T00:52:17.152Z,5.50
2019-05-09T00:54:49.264Z,5.77
2019-05-09T00:57:36.815Z,6.40
2019-05-09T01:00:14.611Z,6.10
2019-05-09T01:02:47.037Z,6.03
2019-05-09T01:05:19.170Z,6.00
2019-05-09T01:07:51.228Z,6.70
2019-05-09T01:10:23.852Z,6.33
2019-05-09T01:12:55.988Z,6.00
2019-05-09T01:15:28.027Z,5.70
2019-05-09T01:18:00.079Z,5.90
2019-05-09T01:20:33.297Z,5.67
2019-05-09T01:23:05.578Z,6.80
2019-05-09T01:25:37.613Z,5.50
2019-05-09T01:28:09.653Z,5.97
2019-05-09T01:30:43.766Z,7.07
2019-05-09T01:33:28.335Z,8.40
2019-05-09T01:36:00.983Z,9.43
2019-05-09T01:38:33.918Z,8.77
2019-05-09T01:41:06.779Z,7.90
2019-05-09T01:43:39.094Z,7.50
2019-05-09T01:46:11.264Z,7.70
2019-05-09T01:48:43.308Z,7.37
2019-05-09T01:51:16.247Z,7.77
2019-05-09T01:53:53.205Z,7.83
2019-05-09T01:56:25.423Z,7.70
2019-05-09T01:58:57.483Z,7.93
2019-05-09T02:01:29.576Z,7.60
2019-05-09T02:04:03.630Z,7.57
2019-05-09T02:06:35.392Z,7.70
2019-05-09T02:09:08.908Z,9.77
2019-05-09T02:11:43.286Z,8.03
2019-05-09T02:14:17.678Z,7.57
2019-05-09T02:17:07.063Z,8.13
2019-05-09T02:19:43.814Z,7.17
2019-05-09T02:22:34.680Z,7.20
2019-05-09T02:25:09.918Z,7.53
2019-05-09T02:27:43.647Z,6.97
2019-05-09T02:30:16.687Z,7.33
2019-05-09T02:32:48.704Z,6.83
2019-05-09T02:35:20.864Z,6.83
2019-05-09T02:37:52.940Z,6.90
2019-05-09T02:40:25.118Z,7.43
2019-05-09T02:42:59.052Z,6.83
2019-05-09T02:45:38.945Z,6.47
2019-05-09T02:48:11.010Z,6.97
2019-05-09T02:50:43.154Z,6.30
2019-05-09T02:53:15.479Z,6.80
2019-05-09T02:55:49.446Z,7.80
2019-05-09T02:58:22.945Z,7.20
2019-05-09T03:01:18.949Z,7.10
2019-05-09T03:03:51.422Z,6.30
2019-05-09T03:06:23.458Z,5.87
2019-05-09T03:08:55.559Z,6.10
2019-05-09T03:11:28.936Z,6.00
2019-05-09T03:14:01.305Z,5.97
2019-05-09T03:16:33.797Z,5.67
2019-05-09T03:19:08.779Z,5.87
2019-05-09T03:21:45.559Z,5.67
2019-05-09T03:24:18.596Z,5.73
2019-05-09T03:26:58.753Z,6.43
2019-05-09T03:29:40.419Z,5.73
2019-05-09T03:32:12.504Z,5.80
2019-05-09T03:34:44.630Z,5.77
2019-05-09T03:37:17.646Z,5.70
2019-05-09T03:39:49.887Z,6.13
2019-05-09T03:42:36.499Z,6.03
2019-05-09T03:44:57.919Z,5.60
2019-05-09T03:47:48.313Z,5.70
2019-05-09T03:50:20.418Z,5.93
2019-05-09T03:52:52.522Z,5.70
2019-05-09T03:55:29.072Z,6.10
2019-05-09T03:58:11.686Z,5.83
2019-05-09T04:00:43.799Z,7.17
2019-05-09T04:03:15.815Z,8.10
2019-05-09T04:05:58.432Z,5.83
2019-05-09T04:08:21.792Z,6.20
2019-05-09T04:10:55.228Z,5.77
2019-05-09T04:13:38.568Z,5.67
2019-05-09T04:16:11.218Z,7.33
2019-05-09T04:18:43.434Z,5.10
2019-05-09T04:21:17.452Z,5.77
2019-05-09T04:23:49.311Z,5.40
2019-05-09T04:26:45.037Z,7.00
2019-05-09T04:29:18.354Z,7.30
2019-05-09T04:31:50.852Z,5.60
2019-05-09T04:34:23.098Z,6.70
2019-05-09T04:36:57.428Z,7.50
2019-05-09T04:39:28.994Z,10.63
2019-05-09T04:42:05.336Z,5.97
2019-05-09T04:45:03.029Z,5.87
2019-05-09T04:47:33.910Z,7.07
2019-05-09T04:50:04.321Z,6.77
2019-05-09T04:52:39.879Z,6.30
2019-05-09T04:55:11.328Z,6.10
2019-05-09T04:57:43.393Z,5.53
2019-05-09T05:00:19.689Z,6.67
2019-05-09T05:02:52.142Z,5.87
2019-05-09T05:05:24.560Z,7.00
2019-05-09T05:07:57.392Z,6.53
2019-05-09T05:10:29.646Z,5.87
2019-05-09T05:13:01.815Z,5.80
2019-05-09T05:15:33.961Z,6.57
2019-05-09T05:18:08.471Z,6.03
2019-05-09T05:20:40.102Z,6.37
2019-05-09T05:23:22.204Z,6.07
2019-05-09T05:25:54.266Z,6.93
2019-05-09T05:28:27.838Z,7.17
2019-05-09T05:31:00.238Z,6.53
2019-05-09T05:34:03.190Z,6.60
2019-05-09T05:36:35.209Z,7.13
2019-05-09T05:39:09.464Z,6.47
2019-05-09T05:41:41.636Z,6.90
2019-05-09T05:44:13.745Z,6.90
2019-05-09T05:47:12.723Z,6.90
2019-05-09T05:49:44.973Z,9.73
2019-05-09T05:52:18.527Z,13.07
2019-05-09T05:54:50.752Z,13.90
2019-05-09T05:57:22.916Z,9.30
2019-05-09T05:59:55.064Z,8.33
2019-05-09T06:02:28.152Z,8.00
2019-05-09T06:05:00.431Z,8.30
2019-05-09T06:07:32.499Z,7.97
2019-05-09T06:10:04.651Z,7.50
2019-05-09T06:12:38.102Z,8.10
2019-05-09T06:15:10.880Z,8.00
2019-05-09T06:17:42.958Z,7.13
2019-05-09T06:20:17.580Z,7.47
2019-05-09T06:22:49.028Z,8.33
2019-05-09T06:25:21.418Z,8.33
2019-05-09T06:27:54.003Z,8.40
2019-05-09T06:30:31.875Z,8.57
2019-05-09T06:33:05.121Z,8.73
2019-05-09T06:35:38.032Z,8.40
2019-05-09T06:38:10.350Z,7.97
2019-05-09T06:40:42.567Z,9.07
2019-05-09T06:43:18.860Z,7.90
2019-05-09T06:46:08.399Z,8.23
2019-05-09T06:48:40.488Z,8.97
2019-05-09T06:51:12.558Z,8.70
2019-05-09T06:53:44.713Z,8.43
2019-05-09T06:56:17.820Z,8.97
2019-05-09T06:58:50.112Z,9.17
2019-05-09T07:01:57.585Z,8.53
2019-05-09T07:04:38.055Z,8.83
2019-05-09T07:07:17.747Z,8.00
2019-05-09T07:09:53.548Z,7.77
2019-05-09T07:12:27.390Z,8.77
2019-05-09T07:14:59.400Z,7.63
2019-05-09T07:17:50.383Z,11.77
2019-05-09T07:20:22.468Z,11.53
2019-05-09T07:22:58.321Z,8.23
2019-05-09T07:25:48.493Z,7.37
2019-05-09T07:28:20.702Z,7.63
2019-05-09T07:31:14.751Z,7.90
2019-05-09T07:34:08.864Z,7.80
2019-05-09T07:36:41.012Z,8.70
2019-05-09T07:39:13.175Z,8.83
2019-05-09T07:41:47.618Z,8.30
2019-05-09T07:44:19.015Z,8.43
2019-05-09T07:46:58.148Z,7.17
2019-05-09T07:49:31.770Z,7.57
2019-05-09T07:52:06.856Z,8.37
2019-05-09T07:54:37.955Z,7.90
2019-05-09T07:57:10.309Z,7.63
2019-05-09T07:59:42.402Z,8.23
2019-05-09T08:02:14.515Z,7.90
2019-05-09T08:04:48.937Z,8.23
2019-05-09T08:07:20.609Z,7.27
2019-05-09T08:09:52.676Z,8.07
2019-05-09T08:12:24.781Z,8.07
2019-05-09T08:15:10.992Z,8.03
2019-05-09T08:17:30.665Z,8.70
2019-05-09T08:20:02.835Z,8.83
2019-05-09T08:22:35.034Z,9.10
2019-05-09T08:25:08.256Z,10.27
2019-05-09T08:27:40.637Z,9.37
2019-05-09T08:30:13.522Z,9.00
2019-05-09T08:32:48.024Z,10.30
2019-05-09T08:35:19.675Z,10.73
2019-05-09T08:37:51.771Z,9.77
2019-05-09T08:40:23.936Z,7.63
2019-05-09T08:42:58.499Z,7.43
2019-05-09T08:45:31.509Z,4.70
2019-05-09T08:48:03.879Z,4.20
2019-05-09T08:50:40.666Z,3.77
2019-05-09T08:53:12.748Z,4.30
2019-05-09T08:55:47.351Z,4.80
2019-05-09T08:58:19.578Z,7.10
2019-05-09T09:00:52.559Z,3.73
2019-05-09T09:03:24.647Z,6.67
2019-05-09T09:05:57.710Z,3.17
2019-05-09T09:08:30.021Z,3.80
2019-05-09T09:11:02.076Z,3.30
2019-05-09T09:13:34.168Z,3.10
2019-05-09T09:16:15.810Z,3.90
2019-05-09T09:18:40.122Z,5.93
2019-05-09T09:21:12.197Z,2.90
2019-05-09T09:23:49.697Z,3.00
2019-05-09T09:26:18.565Z,2.90
2019-05-09T09:28:50.687Z,3.57
2019-05-09T09:31:22.904Z,3.10
2019-05-09T09:33:55.061Z,3.50
2019-05-09T09:36:28.349Z,3.30
2019-05-09T09:39:02.970Z,3.53
2019-05-09T09:41:34.285Z,3.83
2019-05-09T09:44:08.825Z,3.70
2019-05-09T09:46:40.320Z,4.53
2019-05-09T09:49:12.499Z,3.67
2019-05-09T09:51:44.536Z,3.83
2019-05-09T09:54:18.753Z,3.23
2019-05-09T09:56:52.413Z,3.17
2019-05-09T09:59:37.399Z,2.90
2019-05-09T10:02:10.276Z,2.80
2019-05-09T10:04:42.628Z,3.27
2019-05-09T10:07:14.682Z,2.60
2019-05-09T10:09:48.044Z,2.37
2019-05-09T10:12:20.438Z,1.70
2019-05-09T10:15:08.503Z,1.40
2019-05-09T10:17:52.496Z,1.40
2019-05-09T10:20:43.378Z,1.47
2019-05-09T10:23:18.844Z,1.50
2019-05-09T10:25:49.279Z,1.30
2019-05-09T10:28:21.951Z,1.10
2019-05-09T10:30:53.973Z,8.33
2019-05-09T10:33:28.026Z,2.47
2019-05-09T10:36:04.364Z,1.50
2019-05-09T10:38:34.141Z,3.60
2019-05-09T10:41:10.902Z,1.33
2019-05-09T10:43:58.149Z,1.20
2019-05-09T10:46:57.088Z,1.10
2019-05-09T10:49:25.631Z,1.07
2019-05-09T10:51:58.185Z,0.97
2019-05-09T10:54:30.529Z,1.00
2019-05-09T10:57:02.663Z,1.00
2019-05-09T10:59:34.895Z,0.80
2019-05-09T11:02:09.493Z,1.07
2019-05-09T11:04:44.177Z,1.00
2019-05-09T11:07:14.878Z,0.90
2019-05-09T11:09:48.053Z,1.00
2019-05-09T11:12:20.222Z,1.10
2019-05-09T11:14:52.280Z,1.37
2019-05-09T11:17:24.353Z,1.10
2019-05-09T11:19:58.783Z,1.17
2019-05-09T11:22:30.216Z,1.40
2019-05-09T11:25:02.277Z,1.10
2019-05-09T11:27:34.284Z,0.87
2019-05-09T11:30:08.447Z,1.27
2019-05-09T11:32:40.761Z,1.00
2019-05-09T11:35:13.323Z,1.20
2019-05-09T11:37:47.918Z,1.10
2019-05-09T11:40:19.271Z,2.03
2019-05-09T11:42:51.400Z,1.90
2019-05-09T11:45:23.479Z,3.83
2019-05-09T11:47:58.051Z,4.73
2019-05-09T11:50:29.456Z,1.77
2019-05-09T11:53:01.771Z,1.13
2019-05-09T11:55:36.653Z,0.70
2019-05-09T11:58:08.492Z,0.77
2019-05-09T12:00:40.615Z,0.90
2019-05-09T12:03:12.672Z,0.80
2019-05-09T12:05:47.476Z,0.90
2019-05-09T12:08:18.981Z,0.70
2019-05-09T12:10:51.082Z,1.17
2019-05-09T12:13:23.477Z,1.63
2019-05-09T12:15:58.284Z,3.97
2019-05-09T12:18:29.430Z,1.03
2019-05-09T12:21:01.495Z,1.00
2019-05-09T12:23:33.587Z,0.93
2019-05-09T12:26:08.186Z,0.90
2019-05-09T12:28:40.016Z,0.70
2019-05-09T12:31:12.190Z,0.80
2019-05-09T12:33:44.357Z,0.90
2019-05-09T12:36:19.103Z,1.30
2019-05-09T12:38:50.398Z,1.00
2019-05-09T12:41:22.573Z,1.07
2019-05-09T12:43:54.732Z,1.50
2019-05-09T12:46:28.393Z,1.00
2019-05-09T12:49:00.684Z,0.83
2019-05-09T12:51:32.896Z,0.67
2019-05-09T12:54:08.144Z,0.90
2019-05-09T12:56:39.162Z,0.80
2019-05-09T12:59:11.267Z,0.67
2019-05-09T13:01:43.415Z,0.80
2019-05-09T13:04:15.843Z,0.90
2019-05-09T13:06:48.899Z,0.80
2019-05-09T13:09:21.320Z,0.70
2019-05-09T13:11:53.503Z,1.30
2019-05-09T13:14:28.396Z,1.10
2019-05-09T13:17:08.542Z,1.40
2019-05-09T13:19:47.944Z,0.83
2019-05-09T13:22:19.897Z,0.80
2019-05-09T13:24:52.366Z,1.00
2019-05-09T13:27:24.524Z,0.67
2019-05-09T13:29:56.705Z,0.80
2019-05-09T13:32:28.784Z,0.90
2019-05-09T13:35:00.878Z,0.70
2019-05-09T13:37:32.961Z,0.70
2019-05-09T13:40:05.224Z,0.80
2019-05-09T13:42:39.449Z,2.30
2019-05-09T13:45:12.011Z,4.07
2019-05-09T13:47:44.161Z,1.63
2019-05-09T13:50:18.620Z,0.77
2019-05-09T13:52:50.574Z,0.60
2019-05-09T13:55:22.772Z,0.50
2019-05-09T13:57:54.893Z,0.80
2019-05-09T14:00:28.583Z,0.60
2019-05-09T14:03:01.222Z,0.50
2019-05-09T14:05:33.766Z,0.67
2019-05-09T14:08:09.067Z,0.73
2019-05-09T14:10:40.182Z,0.67
2019-05-09T14:13:14.076Z,0.50
2019-05-09T14:15:48.680Z,0.70
2019-05-09T14:18:19.760Z,0.47
2019-05-09T14:20:51.863Z,0.50
2019-05-09T14:23:24.062Z,0.57
2019-05-09T14:25:59.122Z,0.70
2019-05-09T14:28:31.823Z,0.60
2019-05-09T14:31:04.182Z,0.50
2019-05-09T14:33:38.771Z,0.60
2019-05-09T14:36:10.418Z,0.80
2019-05-09T14:38:42.621Z,0.80
2019-05-09T14:41:14.760Z,3.00
2019-05-09T14:43:48.307Z,3.50
2019-05-09T14:46:20.896Z,3.87
2019-05-09T14:48:53.062Z,1.00
2019-05-09T14:51:25.159Z,1.33
2019-05-09T14:53:59.500Z,7.33
2019-05-09T14:56:31.374Z,2.70
2019-05-09T14:59:03.531Z,1.30
2019-05-09T15:01:38.498Z,0.87
2019-05-09T15:04:09.950Z,4.70
2019-05-09T15:06:42.017Z,3.90
2019-05-09T15:09:14.125Z,0.87
2019-05-09T15:11:48.378Z,0.53
2019-05-09T15:14:20.114Z,0.60
2019-05-09T15:16:52.299Z,0.73
2019-05-09T15:19:24.360Z,0.80
2019-05-09T15:21:57.972Z,0.93
2019-05-09T15:24:30.640Z,0.60
2019-05-09T15:27:03.057Z,0.50
2019-05-09T15:29:35.218Z,0.50
2019-05-09T15:32:12.061Z,0.53
2019-05-09T15:34:41.684Z,0.80
2019-05-09T15:37:13.775Z,0.60
2019-05-09T15:39:48.275Z,0.93
2019-05-09T15:42:19.706Z,1.00
2019-05-09T15:44:51.866Z,0.70
2019-05-09T15:47:28.635Z,1.13
2019-05-09T15:50:15.492Z,1.27
2019-05-09T15:52:34.667Z,0.70
2019-05-09T15:55:09.472Z,0.77
2019-05-09T15:57:41.664Z,1.10
2019-05-09T16:00:18.771Z,1.30
2019-05-09T16:02:49.749Z,0.60
2019-05-09T16:05:21.893Z,0.80
2019-05-09T16:07:54.076Z,2.43
2019-05-09T16:10:28.310Z,1.50
2019-05-09T16:13:00.460Z,1.13
2019-05-09T16:15:32.878Z,0.90
2019-05-09T16:18:04.958Z,0.43
2019-05-09T16:20:40.963Z,1.40
2019-05-09T16:23:10.777Z,0.77
2019-05-09T16:25:42.939Z,1.00
2019-05-09T16:28:15.054Z,2.27
2019-05-09T16:30:48.345Z,3.80
2019-05-09T16:33:20.804Z,2.97
2019-05-09T16:35:53.242Z,1.10
2019-05-09T16:38:41.235Z,1.00
2019-05-09T16:40:59.377Z,0.77
2019-05-09T16:43:31.569Z,0.70
2019-05-09T16:46:03.764Z,0.43
2019-05-09T16:48:35.890Z,0.80
2019-05-09T16:51:08.315Z,0.80
2019-05-09T16:53:40.425Z,0.60
2019-05-09T16:56:12.684Z,0.57
2019-05-09T16:58:44.750Z,0.60
2019-05-09T17:01:18.565Z,0.60
2019-05-09T17:03:51.218Z,0.70
2019-05-09T17:06:23.481Z,1.37
2019-05-09T17:08:58.211Z,1.73
2019-05-09T17:11:29.547Z,2.37
2019-05-09T17:14:01.765Z,1.37
2019-05-09T17:16:34.009Z,1.60
2019-05-09T17:19:06.653Z,1.30
2019-05-09T17:21:48.441Z,0.70
2019-05-09T17:24:21.118Z,0.83
2019-05-09T17:26:53.369Z,1.27
2019-05-09T17:29:28.056Z,0.80
2019-05-09T17:31:59.665Z,0.90
2019-05-09T17:34:32.163Z,1.00
2019-05-09T17:37:04.560Z,2.43
2019-05-09T17:39:38.693Z,2.97
2019-05-09T17:42:10.714Z,1.80
2019-05-09T17:44:43.252Z,2.50
2019-05-09T17:47:17.374Z,1.20
2019-05-09T17:49:49.244Z,0.93
2019-05-09T17:52:21.428Z,1.37
2019-05-09T17:54:53.539Z,1.13
2019-05-09T17:57:27.914Z,8.37
2019-05-09T17:59:59.933Z,3.67
2019-05-09T18:02:32.141Z,4.73
2019-05-09T18:05:04.445Z,3.47
2019-05-09T18:07:37.702Z,9.80
2019-05-09T18:10:10.404Z,9.47
2019-05-09T18:12:42.758Z,9.73
2019-05-09T18:15:15.591Z,14.00
2019-05-09T18:17:48.100Z,11.63
2019-05-09T18:20:20.879Z,11.67
2019-05-09T18:22:53.026Z,12.50
2019-05-09T18:25:25.433Z,12.90
2019-05-09T18:27:57.598Z,13.47
2019-05-09T18:30:29.839Z,12.33
2019-05-09T18:33:07.686Z,12.53
2019-05-09T18:35:39.909Z,11.53
2019-05-09T18:38:27.828Z,12.40
2019-05-09T18:40:59.372Z,10.80
2019-05-09T18:43:50.500Z,9.20
2019-05-09T18:46:22.687Z,10.27
2019-05-09T18:48:54.826Z,10.97
2019-05-09T18:51:28.731Z,11.93
2019-05-09T18:54:20.225Z,11.43
2019-05-09T18:56:53.375Z,12.57
2019-05-09T18:59:25.801Z,14.23
2019-05-09T19:02:09.294Z,15.20
2019-05-09T19:04:41.497Z,15.67
2019-05-09T19:07:22.112Z,15.10
2019-05-09T19:09:48.448Z,15.57
2019-05-09T19:12:20.674Z,16.83
2019-05-09T19:14:52.867Z,26.57
2019-05-09T19:17:51.093Z,18.57
2019-05-09T19:20:48.175Z,18.77
2019-05-09T19:23:20.613Z,15.20
2019-05-09T19:25:52.921Z,13.70
2019-05-09T19:28:25.088Z,14.50
2019-05-09T19:30:57.380Z,12.90
2019-05-09T19:33:29.529Z,14.80
2019-05-09T19:36:01.809Z,14.03
2019-05-09T19:38:33.928Z,13.17
2019-05-09T19:41:06.142Z,12.23
2019-05-09T19:43:38.679Z,13.23
2019-05-09T19:46:10.868Z,13.57
2019-05-09T19:48:42.992Z,14.27
2019-05-09T19:51:15.239Z,14.23
2019-05-09T19:53:47.366Z,14.53
2019-05-09T19:56:19.553Z,16.00
2019-05-09T19:58:51.813Z,15.37
2019-05-09T20:01:23.967Z,16.27
2019-05-09T20:03:56.353Z,16.67
2019-05-09T20:06:28.525Z,15.63
2019-05-09T20:09:00.719Z,15.03
2019-05-09T20:11:51.818Z,16.00
2019-05-09T20:14:27.695Z,15.17
2019-05-09T20:17:00.201Z,15.20
2019-05-09T20:19:32.918Z,14.23
2019-05-09T20:22:05.550Z,14.23
2019-05-09T20:24:37.821Z,14.73
2019-05-09T20:27:10.231Z,15.07
2019-05-09T20:29:43.849Z,15.03
2019-05-09T20:32:16.233Z,14.47
2019-05-09T20:34:48.589Z,14.97
2019-05-09T20:37:20.752Z,16.10
2019-05-09T20:39:53.083Z,15.40
2019-05-09T20:42:25.557Z,15.27
2019-05-09T20:44:58.440Z,15.20
2019-05-09T20:47:30.899Z,15.63
2019-05-09T20:50:03.654Z,16.73
2019-05-09T20:52:37.070Z,16.67
2019-05-09T20:55:09.798Z,15.27
2019-05-09T20:57:42.187Z,16.77
2019-05-09T21:00:15.398Z,16.27
2019-05-09T21:02:47.746Z,15.77
2019-05-09T21:05:20.265Z,16.90
2019-05-09T21:07:52.673Z,16.50
2019-05-09T21:10:25.262Z,16.17
2019-05-09T21:12:57.783Z,16.07
2019-05-09T21:15:30.338Z,15.77
2019-05-09T21:18:02.905Z,15.87
2019-05-09T21:20:36.127Z,16.67
2019-05-09T21:23:23.447Z,16.53
2019-05-09T21:25:42.734Z,16.57
2019-05-09T21:28:15.054Z,17.83
2019-05-09T21:30:47.363Z,16.13
2019-05-09T21:33:19.721Z,16.17
2019-05-09T21:35:51.768Z,16.50
2019-05-09T21:38:23.993Z,16.93
2019-05-09T21:40:56.157Z,16.47
2019-05-09T21:43:28.332Z,24.20
2019-05-09T21:46:01.058Z,47.63
2019-05-09T21:48:33.312Z,23.93
2019-05-09T21:51:05.511Z,20.57
2019-05-09T21:53:40.861Z,19.77
2019-05-09T21:56:11.522Z,18.70
2019-05-09T21:58:43.786Z,17.40
2019-05-09T22:01:19.497Z,16.57
2019-05-09T22:03:52.194Z,16.13
2019-05-09T22:06:24.302Z,17.27
2019-05-09T22:08:56.894Z,18.57
2019-05-09T22:11:29.188Z,18.07
2019-05-09T22:14:02.741Z,17.97
2019-05-09T22:16:34.910Z,17.70
2019-05-09T22:19:07.447Z,20.00
2019-05-09T22:21:39.886Z,18.13
2019-05-09T22:24:12.446Z,18.67
2019-05-09T22:26:44.518Z,21.07
2019-05-09T22:29:16.686Z,20.10
2019-05-09T22:31:48.788Z,19.60
2019-05-09T22:34:21.132Z,18.27
2019-05-09T22:36:53.319Z,18.50
2019-05-09T22:39:25.445Z,19.57
2019-05-09T22:41:57.505Z,19.70
2019-05-09T22:44:30.103Z,19.23
2019-05-09T22:47:02.461Z,19.20
2019-05-09T22:49:34.556Z,19.77
2019-05-09T22:52:06.780Z,19.60
2019-05-09T22:54:39.231Z,19.50
2019-05-09T22:57:11.283Z,19.80
2019-05-09T22:59:43.472Z,20.53
2019-05-09T23:02:15.616Z,20.90
2019-05-09T23:04:47.767Z,22.87
2019-05-09T23:07:19.951Z,21.73
2019-05-09T23:09:52.032Z,21.33
2019-05-09T23:12:24.115Z,21.27
2019-05-09T23:14:56.244Z,21.07
2019-05-09T23:17:28.384Z,20.20
2019-05-09T23:20:00.609Z,18.80
2019-05-09T23:22:33.308Z,19.63
2019-05-09T23:25:06.027Z,19.27
2019-05-09T23:27:38.059Z,17.97
2019-05-09T23:30:11.855Z,16.27
2019-05-09T23:32:45.824Z,14.93
2019-05-09T23:35:18.157Z,14.67
2019-05-09T23:37:51.024Z,14.43
2019-05-09T23:40:23.217Z,13.53
2019-05-09T23:42:55.296Z,13.53
2019-05-09T23:45:27.545Z,13.37
2019-05-09T23:47:59.760Z,14.33
2019-05-09T23:50:32.091Z,14.73
2019-05-09T23:53:04.223Z,14.53
2019-05-09T23:55:53.726Z,15.60
2019-05-09T23:58:43.488Z,15.07
